Time;durP1;ratioP1;P1;durP2;ratioP2;P2;SDS_P1;SDS_P2;PMS_P1;PMS_P2;Temp;Humidity;BMP_temperature;BMP_pressure;BME280_temperature;BME280_humidity;BME280_pressure;Samples;Min_cycle;Max_cycle;Signal;HPM_P1;HPM_P2
2022/06/20 00:01:03;;;;;;;9.93;2.10;;;13.30;99.90;;;;;;5070583;28;20424;-76
2022/06/20 00:03:35;;;;;;;9.32;1.52;;;13.30;99.90;;;;;;5070718;28;20050;-76
2022/06/20 00:06:00;;;;;;;12.10;2.22;;;13.30;99.90;;;;;;5070656;28;20047;-76
2022/06/20 00:08:26;;;;;;;8.45;2.30;;;13.20;99.90;;;;;;5070505;28;20048;-76
2022/06/20 00:10:52;;;;;;;6.50;2.30;;;13.20;99.90;;;;;;5052091;28;20419;-77
2022/06/20 00:13:31;;;;;;;12.05;1.73;;;13.20;99.90;;;;;;5070507;28;20556;-77
2022/06/20 00:15:57;;;;;;;5.93;1.48;;;13.30;99.90;;;;;;5052049;28;20040;-78
2022/06/20 00:18:23;;;;;;;9.43;2.20;;;13.20;99.90;;;;;;5070482;28;20047;-80
2022/06/20 00:20:49;;;;;;;10.75;1.92;;;13.20;99.90;;;;;;5070290;28;20084;-75
2022/06/20 00:23:15;;;;;;;9.85;1.73;;;13.30;99.90;;;;;;5052609;28;20494;-78
2022/06/20 00:25:41;;;;;;;14.77;2.33;;;13.20;99.90;;;;;;5070141;28;20124;-77
2022/06/20 00:28:08;;;;;;;7.55;1.60;;;13.30;99.90;;;;;;5070313;28;20072;-77
2022/06/20 00:30:35;;;;;;;7.78;1.27;;;13.10;99.90;;;;;;5070250;28;20048;-77
2022/06/20 00:33:01;;;;;;;8.77;1.80;;;13.30;99.90;;;;;;5070102;28;20072;-76
2022/06/20 00:35:26;;;;;;;8.90;1.60;;;13.10;99.90;;;;;;5052592;28;20091;-78
2022/06/20 00:37:55;;;;;;;11.23;1.95;;;13.10;99.90;;;;;;5070139;28;20487;-77
2022/06/20 00:40:39;;;;;;;7.00;1.42;;;13.40;99.90;;;;;;5070014;28;20087;-76
2022/06/20 00:43:07;;;;;;;15.02;2.20;;;13.10;99.90;;;;;;5070337;28;20423;-79
2022/06/20 00:45:39;;;;;;;7.28;1.48;;;13.10;99.90;;;;;;5070134;28;20052;-77
2022/06/20 00:48:11;;;;;;;11.10;1.50;;;13.10;99.90;;;;;;5069968;28;20049;-76
2022/06/20 00:50:37;;;;;;;4.65;1.60;;;13.10;99.90;;;;;;5070034;28;20052;-77
2022/06/20 00:53:12;;;;;;;9.75;1.42;;;13.10;99.90;;;;;;5051907;28;20059;-77
2022/06/20 00:55:57;;;;;;;11.00;1.80;;;13.10;99.90;;;;;;5070177;28;20059;-79
2022/06/20 00:58:35;;;;;;;7.70;1.55;;;13.00;99.90;;;;;;5069755;28;20051;-79
2022/06/20 01:01:01;;;;;;;8.77;1.48;;;13.00;99.90;;;;;;5069999;28;20045;-76
2022/06/20 01:03:33;;;;;;;10.23;1.50;;;13.00;99.90;;;;;;5069886;28;20059;-76
2022/06/20 01:05:58;;;;;;;11.00;1.75;;;12.90;99.90;;;;;;5054231;28;20049;-76
2022/06/20 01:08:29;;;;;;;7.68;1.30;;;12.90;99.90;;;;;;5074008;28;20047;-76
2022/06/20 01:11:00;;;;;;;9.88;1.50;;;12.80;99.90;;;;;;5055926;28;20422;-77
2022/06/20 01:13:26;;;;;;;9.63;1.50;;;12.80;99.90;;;;;;5073732;28;20120;-79
2022/06/20 01:16:16;;;;;;;5.03;1.40;;;12.80;99.90;;;;;;5073775;28;20115;-76
2022/06/20 01:18:45;;;;;;;6.85;2.00;;;12.70;99.90;;;;;;5055842;28;20037;-77
2022/06/20 01:21:15;;;;;;;7.93;1.20;;;12.70;99.90;;;;;;5073809;28;20113;-76
2022/06/20 01:23:44;;;;;;;8.93;1.38;;;12.80;99.90;;;;;;5055676;28;20056;-77
2022/06/20 01:26:22;;;;;;;8.38;1.45;;;12.50;99.90;;;;;;5073568;28;20056;-76
2022/06/20 01:28:54;;;;;;;9.05;1.30;;;12.50;99.90;;;;;;5055896;28;20457;-76
2022/06/20 01:31:21;;;;;;;8.10;1.40;;;12.40;99.90;;;;;;5073478;28;20067;-76
2022/06/20 01:33:49;;;;;;;10.15;1.50;;;12.40;99.90;;;;;;5073237;28;20135;-76
2022/06/20 01:39:02;;;;;;;6.57;1.20;;;12.30;99.90;;;;;;5073086;28;20437;-77
2022/06/20 01:44:15;;;;;;;5.43;1.30;;;12.20;99.90;;;;;;5073062;28;20075;-79
2022/06/20 01:46:41;;;;;;;7.65;1.40;;;12.10;99.90;;;;;;5073073;28;20049;-76
2022/06/20 01:49:20;;;;;;;6.80;1.13;;;12.30;99.90;;;;;;5072730;28;20128;-79
2022/06/20 01:51:57;;;;;;;10.07;1.25;;;12.20;99.90;;;;;;5072634;28;20139;-76
2022/06/20 01:54:28;;;;;;;5.65;1.10;;;12.00;99.90;;;;;;5072714;28;20109;-77
2022/06/20 01:56:54;;;;;;;7.75;1.50;;;12.00;99.90;;;;;;5072944;28;20116;-77
2022/06/20 01:59:23;;;;;;;8.80;1.45;;;11.90;99.90;;;;;;5072795;28;20511;-76
2022/06/20 02:01:50;;;;;;;10.02;1.45;;;11.90;99.90;;;;;;5072544;28;20055;-77
2022/06/20 02:04:20;;;;;;;8.65;1.63;;;11.90;99.90;;;;;;5054553;28;20045;-76
2022/06/20 02:06:48;;;;;;;7.25;1.35;;;11.80;99.90;;;;;;5072852;28;20052;-76
2022/06/20 02:09:14;;;;;;;5.05;1.25;;;11.80;99.90;;;;;;5072389;28;20048;-76
2022/06/20 02:11:43;;;;;;;5.60;1.58;;;11.80;99.90;;;;;;5072516;28;20415;-75
2022/06/20 02:14:15;;;;;;;9.60;1.63;;;12.00;99.90;;;;;;5072244;28;20040;-77
2022/06/20 02:16:44;;;;;;;7.32;1.40;;;11.80;99.90;;;;;;5053746;28;20052;-78
2022/06/20 02:19:14;;;;;;;8.98;1.75;;;11.80;99.90;;;;;;5053939;28;20535;-76
2022/06/20 02:21:41;;;;;;;7.40;1.50;;;11.90;99.90;;;;;;5054167;28;20052;-76
2022/06/20 02:24:16;;;;;;;9.18;1.92;;;11.80;99.90;;;;;;5072448;28;20095;-76
2022/06/20 02:26:44;;;;;;;9.57;1.75;;;11.90;99.90;;;;;;5072099;28;20044;-75
2022/06/20 02:29:21;;;;;;;8.80;1.33;;;11.90;99.90;;;;;;5071936;28;20049;-76
2022/06/20 02:31:55;;;;;;;7.43;2.30;;;11.90;99.90;;;;;;5071903;28;20052;-76
2022/06/20 02:34:26;;;;;;;5.38;1.40;;;11.90;99.90;;;;;;5053746;28;20098;-77
2022/06/20 02:36:53;;;;;;;4.72;1.23;;;11.90;99.90;;;;;;5071956;28;20048;-77
2022/06/20 02:39:20;;;;;;;11.73;1.90;;;11.90;99.90;;;;;;5072002;28;20494;-75
2022/06/20 02:41:50;;;;;;;8.43;1.60;;;11.90;99.90;;;;;;5053850;28;20109;-79
2022/06/20 02:44:19;;;;;;;6.90;2.00;;;12.10;99.90;;;;;;5071627;28;20051;-76
2022/06/20 02:46:47;;;;;;;10.30;2.00;;;11.90;99.90;;;;;;5071958;28;20044;-75
2022/06/20 02:49:16;;;;;;;7.35;1.98;;;12.00;99.90;;;;;;5071553;28;20504;-77
2022/06/20 02:51:48;;;;;;;5.88;1.52;;;11.90;99.90;;;;;;5071128;28;20060;-77
2022/06/20 02:54:15;;;;;;;9.73;1.65;;;11.80;99.90;;;;;;5071591;28;20049;-76
2022/06/20 02:56:54;;;;;;;3.80;1.48;;;11.80;99.90;;;;;;5053698;28;20508;-76
2022/06/20 02:59:34;;;;;;;9.18;1.60;;;12.00;99.90;;;;;;5053938;28;20074;-77
2022/06/20 03:02:07;;;;;;;8.68;1.65;;;11.80;99.90;;;;;;5053403;28;20052;-76
2022/06/20 03:04:36;;;;;;;9.13;1.58;;;11.60;99.90;;;;;;5071224;28;20047;-76
2022/06/20 03:07:12;;;;;;;7.35;1.55;;;11.70;99.90;;;;;;5071092;28;20437;-76
2022/06/20 03:09:40;;;;;;;7.10;1.60;;;11.50;99.90;;;;;;5071377;28;20049;-78
2022/06/20 03:12:07;;;;;;;7.15;1.67;;;11.60;99.90;;;;;;5053682;28;20048;-76
2022/06/20 03:14:51;;;;;;;6.05;1.30;;;11.50;99.90;;;;;;5036836;28;20036;-76
2022/06/20 03:17:20;;;;;;;5.93;1.20;;;11.40;99.90;;;;;;5071246;28;20036;-77
2022/06/20 03:19:50;;;;;;;4.93;1.48;;;11.40;99.90;;;;;;5052987;28;20488;-76
2022/06/20 03:22:20;;;;;;;5.82;1.48;;;11.30;99.90;;;;;;5071000;28;20043;-77
2022/06/20 03:24:47;;;;;;;8.95;1.48;;;11.20;99.90;;;;;;5071310;28;20068;-78
2022/06/20 03:27:23;;;;;;;5.78;1.38;;;11.10;99.90;;;;;;5053142;28;20056;-77
2022/06/20 03:29:54;;;;;;;5.63;1.85;;;11.00;99.90;;;;;;5053377;28;20058;-75
2022/06/20 03:32:22;;;;;;;10.13;1.52;;;11.20;99.90;;;;;;5071073;28;20461;-78
2022/06/20 03:34:47;;;;;;;7.15;1.50;;;11.00;99.90;;;;;;5053212;28;20475;-78
2022/06/20 03:37:13;;;;;;;7.40;1.30;;;10.90;99.90;;;;;;5070437;28;20064;-77
2022/06/20 03:39:39;;;;;;;10.45;1.52;;;10.90;99.90;;;;;;5071007;28;20067;-76
2022/06/20 03:42:05;;;;;;;5.43;1.60;;;10.80;99.90;;;;;;5070934;28;20128;-76
2022/06/20 03:44:42;;;;;;;6.53;1.45;;;10.80;99.90;;;;;;5070768;28;20076;-76
2022/06/20 03:47:12;;;;;;;6.30;1.80;;;11.20;99.90;;;;;;5052737;28;20143;-78
2022/06/20 03:49:41;;;;;;;8.10;2.17;;;10.80;99.90;;;;;;5071076;28;20078;-78
2022/06/20 03:52:20;;;;;;;7.53;2.05;;;10.80;99.90;;;;;;5046056;28;20053;-77
2022/06/20 03:55:16;;;;;;;6.75;1.70;;;10.70;99.90;;;;;;5053249;28;20550;-76
2022/06/20 03:57:56;;;;;;;7.18;1.88;;;10.70;99.90;;;;;;5047565;28;20158;-75
2022/06/20 04:00:35;;;;;;;11.88;2.05;;;10.70;99.90;;;;;;5070614;28;20128;-76
2022/06/20 04:03:31;;;;;;;14.90;2.78;;;10.80;99.90;;;;;;5052717;28;20056;-76
2022/06/20 04:06:17;;;;;;;9.60;2.15;;;10.80;99.90;;;;;;5070605;28;20070;-78
2022/06/20 04:11:42;;;;;;;9.60;2.33;;;10.90;99.90;;;;;;5052496;28;20055;-77
2022/06/20 04:14:21;;;;;;;16.60;2.60;;;10.90;99.90;;;;;;5070401;28;20048;-76
2022/06/20 04:18:27;;;;;;;9.38;2.25;;;10.90;99.90;;;;;;5070291;28;20048;-78
2022/06/20 04:19:51;;;;;;;12.40;2.28;;;11.00;99.90;;;;;;5052165;28;20114;-77
2022/06/20 04:22:20;;;;;;;11.93;2.55;;;11.00;99.90;;;;;;5070103;28;20538;-78
2022/06/20 04:25:24;;;;;;;12.38;2.40;;;11.10;99.90;;;;;;5052178;28;20084;-78
2022/06/20 04:28:27;;;;;;;9.45;3.00;;;11.20;99.90;;;;;;5052316;28;20052;-77
2022/06/20 04:31:01;;;;;;;8.00;2.60;;;11.20;99.90;;;;;;5008029;28;20069;-76
2022/06/20 04:33:35;;;;;;;9.40;2.63;;;11.50;99.90;;;;;;4991474;28;20049;-76
2022/06/20 04:36:28;;;;;;;12.80;3.05;;;11.40;99.90;;;;;;5008068;28;20124;-78
2022/06/20 04:39:02;;;;;;;10.38;3.35;;;11.50;99.90;;;;;;5007690;28;20054;-77
2022/06/20 04:41:48;;;;;;;9.65;2.60;;;11.50;99.90;;;;;;5011135;28;20453;-78
2022/06/20 04:44:30;;;;;;;12.57;2.67;;;11.60;99.90;;;;;;5011731;28;20052;-78
2022/06/20 04:47:36;;;;;;;14.13;3.65;;;11.60;99.90;;;;;;5011709;28;20413;-77
2022/06/20 04:50:03;;;;;;;;;;;11.60;99.90;;;;;;4877766;29;20065;-77
2022/06/20 04:52:30;;;;;;;7.32;2.42;;;11.60;99.90;;;;;;4861947;29;20403;-77
2022/06/20 04:54:57;;;;;;;10.63;3.03;;;11.60;99.90;;;;;;4877230;29;20097;-77
2022/06/20 04:57:26;;;;;;;12.85;2.70;;;11.60;99.90;;;;;;4877272;29;20575;-77
2022/06/20 04:59:55;;;;;;;11.93;2.80;;;11.70;99.90;;;;;;4877367;29;20061;-75
2022/06/20 05:02:22;;;;;;;13.30;2.78;;;11.70;99.90;;;;;;4862146;29;20791;-77
2022/06/20 05:04:52;;;;;;;12.63;3.13;;;11.90;99.90;;;;;;4877553;29;20414;-78
2022/06/20 05:07:32;;;;;;;10.30;3.38;;;11.90;99.90;;;;;;4877379;29;20640;-77
2022/06/20 05:10:19;;;;;;;11.98;2.80;;;11.90;99.90;;;;;;4877249;29;20056;-76
2022/06/20 05:12:51;;;;;;;12.00;3.47;;;12.00;99.90;;;;;;4877341;29;20448;-76
2022/06/20 05:15:29;;;;;;;15.52;3.20;;;12.10;99.90;;;;;;4877192;29;20382;-76
2022/06/20 05:17:59;;;;;;;11.77;2.80;;;12.20;99.90;;;;;;4877289;29;20053;-76
2022/06/20 05:20:31;;;;;;;9.45;3.45;;;12.30;99.90;;;;;;4861497;29;20659;-77
2022/06/20 05:23:09;;;;;;;11.80;2.92;;;12.40;99.90;;;;;;4877221;29;20055;-78
2022/06/20 05:25:36;;;;;;;11.55;4.00;;;12.60;99.90;;;;;;4876703;29;20090;-75
2022/06/20 05:28:08;;;;;;;13.32;3.47;;;12.60;99.90;;;;;;5047020;28;20500;-78
2022/06/20 05:30:35;;;;;;;16.52;3.85;;;12.70;99.90;;;;;;5055205;28;20415;-76
2022/06/20 05:33:14;;;;;;;13.40;3.03;;;12.80;99.90;;;;;;5073296;28;20044;-78
2022/06/20 05:35:49;;;;;;;12.93;3.72;;;12.90;99.90;;;;;;5072996;28;20056;-74
2022/06/20 05:38:26;;;;;;;14.07;3.60;;;13.00;99.90;;;;;;5072954;28;20040;-76
2022/06/20 05:40:56;;;;;;;10.85;3.28;;;13.10;99.90;;;;;;5072614;28;20086;-77
2022/06/20 05:43:21;;;;;;;9.35;3.38;;;13.20;99.90;;;;;;5073069;28;20082;-75
2022/06/20 05:45:59;;;;;;;14.00;3.72;;;13.20;99.90;;;;;;5055182;28;20049;-79
2022/06/20 05:48:32;;;;;;;14.40;3.90;;;13.30;99.90;;;;;;5054820;28;20056;-76
2022/06/20 05:51:01;;;;;;;11.73;3.67;;;13.40;99.90;;;;;;5072353;28;20399;-80
2022/06/20 05:53:38;;;;;;;13.30;3.17;;;13.50;99.90;;;;;;5053790;28;20052;-78
2022/06/20 05:56:13;;;;;;;13.30;4.18;;;13.70;99.90;;;;;;5072551;28;20040;-76
2022/06/20 05:58:42;;;;;;;14.50;3.60;;;13.80;99.90;;;;;;5072984;28;20084;-76
2022/06/20 06:01:14;;;;;;;12.07;3.25;;;13.90;99.90;;;;;;5072862;28;20079;-76
2022/06/20 06:04:11;;;;;;;15.07;3.42;;;14.00;99.90;;;;;;5055276;28;20117;-73
2022/06/20 06:06:45;;;;;;;20.02;3.65;;;14.10;99.90;;;;;;4994110;28;20062;-76
2022/06/20 06:09:17;;;;;;;11.95;2.95;;;14.20;99.90;;;;;;5010494;28;20133;-77
2022/06/20 06:12:00;;;;;;;11.63;2.95;;;14.30;99.90;;;;;;4993642;28;20062;-74
2022/06/20 06:14:47;;;;;;;19.17;3.95;;;14.50;99.90;;;;;;5010262;28;20152;-76
2022/06/20 06:17:22;;;;;;;11.98;3.17;;;14.60;99.90;;;;;;5010101;28;20057;-78
2022/06/20 06:19:51;;;;;;;;;;;14.70;99.90;;;;;;5010664;28;20386;-75
2022/06/20 06:22:27;;;;;;;8.95;3.00;;;14.70;99.90;;;;;;5009999;28;19971;-76
2022/06/20 06:24:58;;;;;;;11.02;2.92;;;14.80;99.90;;;;;;5009856;28;20100;-80
2022/06/20 06:27:27;;;;;;;13.63;3.03;;;14.90;99.90;;;;;;5009685;28;20042;-76
2022/06/20 06:30:06;;;;;;;12.60;3.38;;;15.00;99.90;;;;;;5009796;28;20073;-78
2022/06/20 06:33:20;;;;;;;19.30;4.13;;;15.20;99.90;;;;;;5009764;28;20058;-77
2022/06/20 06:36:08;;;;;;;12.95;3.65;;;15.40;99.90;;;;;;4951263;29;20055;-77
2022/06/20 06:38:36;;;;;;;14.60;2.63;;;15.60;99.90;;;;;;4934919;28;20059;-78
2022/06/20 06:41:06;;;;;;;11.40;3.03;;;15.90;99.90;;;;;;4951394;29;20114;-78
2022/06/20 06:43:39;;;;;;;15.32;3.13;;;15.80;99.90;;;;;;4968777;28;20124;-78
2022/06/20 06:46:15;;;;;;;10.00;3.08;;;16.00;99.90;;;;;;4990112;28;20093;-80
2022/06/20 06:48:52;;;;;;;12.77;3.00;;;16.10;99.90;;;;;;4990403;28;20449;-76
2022/06/20 06:51:26;;;;;;;13.45;2.92;;;15.80;99.90;;;;;;4990112;28;20054;-79
2022/06/20 06:54:09;;;;;;;9.02;2.88;;;15.70;99.90;;;;;;4990318;28;20046;-77
2022/06/20 06:56:40;;;;;;;12.75;2.55;;;15.80;99.90;;;;;;4989938;28;20513;-79
2022/06/20 06:59:33;;;;;;;7.97;2.22;;;16.10;99.90;;;;;;4989841;28;20046;-80
2022/06/20 07:02:02;;;;;;;10.13;2.33;;;15.70;99.90;;;;;;4973563;28;20051;-78
2022/06/20 07:04:45;;;;;;;9.52;2.55;;;15.80;99.90;;;;;;4973379;28;20201;-77
2022/06/20 07:07:29;;;;;;;11.20;2.90;;;16.00;99.90;;;;;;4973661;28;20058;-76
2022/06/20 07:09:55;;;;;;;10.32;2.28;;;16.30;99.90;;;;;;4973513;28;20070;-77
2022/06/20 07:12:34;;;;;;;11.38;2.90;;;16.60;99.90;;;;;;5032980;28;20488;-78
2022/06/20 07:15:14;;;;;;;10.75;2.70;;;16.90;99.90;;;;;;5033336;28;20049;-78
2022/06/20 07:17:50;;;;;;;10.05;2.83;;;17.10;99.90;;;;;;5051308;28;20049;-77
2022/06/20 07:20:18;;;;;;;13.63;2.63;;;17.10;99.90;;;;;;5051037;28;20114;-79
2022/06/20 07:22:45;;;;;;;8.05;2.25;;;17.20;99.90;;;;;;5051106;28;20048;-75
2022/06/20 07:25:22;;;;;;;13.27;2.50;;;16.90;99.90;;;;;;5051189;28;20115;-77
2022/06/20 07:27:56;;;;;;;9.80;2.45;;;16.90;99.90;;;;;;5032626;28;20053;-77
2022/06/20 07:30:26;;;;;;;9.37;2.00;;;17.00;99.90;;;;;;5051015;28;20049;-76
2022/06/20 07:32:58;;;;;;;7.57;1.67;;;17.30;99.90;;;;;;5033104;28;20152;-76
2022/06/20 07:35:31;;;;;;;8.23;1.50;;;17.60;99.90;;;;;;5050948;28;20049;-79
2022/06/20 07:38:09;;;;;;;6.43;1.73;;;17.80;99.90;;;;;;5050823;28;20049;-76
2022/06/20 07:40:48;;;;;;;5.13;1.40;;;17.90;99.90;;;;;;5050591;28;20076;-78
2022/06/20 07:43:34;;;;;;;6.57;2.03;;;18.10;99.90;;;;;;5050427;28;20407;-75
2022/06/20 07:46:07;;;;;;;8.57;1.73;;;18.20;99.90;;;;;;5050538;28;20076;-80
2022/06/20 07:48:39;;;;;;;7.60;1.60;;;17.60;99.90;;;;;;5017027;28;20423;-80
2022/06/20 07:51:25;;;;;;;13.40;2.33;;;17.70;99.90;;;;;;5032476;28;20059;-79
2022/06/20 07:54:12;;;;;;;9.57;2.10;;;17.70;99.90;;;;;;5032517;28;20519;-76
2022/06/20 07:56:45;;;;;;;9.77;1.83;;;18.20;99.90;;;;;;5057157;28;20053;-77
2022/06/20 07:59:29;;;;;;;10.55;1.70;;;18.30;99.90;;;;;;5070223;28;20062;-76
2022/06/20 08:02:06;;;;;;;8.80;1.40;;;18.40;99.90;;;;;;5052741;28;20041;-75
2022/06/20 08:04:37;;;;;;;5.22;1.08;;;18.20;99.90;;;;;;5070527;28;20047;-80
2022/06/20 08:07:21;;;;;;;3.83;1.17;;;18.40;99.90;;;;;;5070347;28;20045;-78
2022/06/20 08:09:57;;;;;;;10.98;1.50;;;18.50;99.90;;;;;;5070241;28;20123;-79
2022/06/20 08:12:36;;;;;;;5.38;1.40;;;18.80;99.90;;;;;;5052639;28;20454;-78
2022/06/20 08:15:17;;;;;;;4.25;0.95;;;18.80;99.90;;;;;;5069347;28;20041;-78
2022/06/20 08:17:43;;;;;;;6.93;1.40;;;18.90;99.90;;;;;;5070505;28;20181;-78
2022/06/20 08:20:10;;;;;;;7.28;1.10;;;18.90;99.90;;;;;;5070329;28;20115;-76
2022/06/20 08:23:14;;;;;;;7.95;1.27;;;18.80;99.90;;;;;;5051984;28;20606;-76
2022/06/20 08:25:55;;;;;;;4.38;1.10;;;18.70;99.90;;;;;;5070484;28;20064;-80
2022/06/20 08:28:26;;;;;;;5.38;1.13;;;18.40;99.90;;;;;;5070231;28;20063;-78
2022/06/20 08:30:57;;;;;;;7.70;1.33;;;18.20;99.90;;;;;;5069826;28;20063;-79
2022/06/20 08:33:35;;;;;;;7.97;1.33;;;17.70;99.90;;;;;;5052544;28;20044;-79
2022/06/20 08:36:23;;;;;;;4.88;1.17;;;17.60;99.90;;;;;;5070448;28;20392;-76
2022/06/20 08:39:20;;;;;;;7.57;1.40;;;17.90;99.90;;;;;;5070591;28;20131;-75
2022/06/20 08:41:56;;;;;;;3.97;1.30;;;18.40;99.90;;;;;;5069502;28;20106;-78
2022/06/20 08:44:52;;;;;;;7.70;1.38;;;18.30;99.90;;;;;;5070093;28;20048;-78
2022/06/20 08:47:52;;;;;;;4.22;1.20;;;18.10;99.90;;;;;;5069949;28;20040;-80
2022/06/20 08:50:31;;;;;;;7.70;1.48;;;18.20;99.90;;;;;;5069964;28;20052;-78
2022/06/20 08:53:24;;;;;;;8.82;1.50;;;17.90;99.90;;;;;;5052173;28;20045;-75
2022/06/20 08:56:16;;;;;;;8.15;1.60;;;17.90;99.90;;;;;;5051812;28;20041;-76
2022/06/20 08:58:44;;;;;;;3.97;1.55;;;17.80;99.90;;;;;;5070121;28;20767;-77
2022/06/20 09:01:41;;;;;;;6.00;1.60;;;17.80;99.90;;;;;;5069676;28;20052;-77
2022/06/20 09:04:47;;;;;;;6.30;2.03;;;17.50;99.90;;;;;;5051890;28;20457;-78
2022/06/20 09:07:32;;;;;;;9.80;1.35;;;17.90;99.90;;;;;;5069999;28;20045;-77
2022/06/20 09:10:07;;;;;;;9.15;1.63;;;18.30;99.90;;;;;;5069659;28;20052;-77
2022/06/20 09:12:54;;;;;;;5.80;1.55;;;18.80;99.90;;;;;;5069654;28;20516;-74
2022/06/20 09:15:39;;;;;;;8.05;1.98;;;19.30;99.90;;;;;;5052035;28;20083;-76
2022/06/20 09:18:07;;;;;;;6.05;1.40;;;19.20;99.90;;;;;;5069618;28;20068;-77
2022/06/20 09:20:42;;;;;;;6.00;1.42;;;19.00;99.90;;;;;;5069871;28;20501;-77
2022/06/20 09:23:22;;;;;;;7.03;1.80;;;18.70;99.90;;;;;;5069609;28;20044;-79
2022/06/20 09:25:56;;;;;;;7.70;1.40;;;18.30;99.90;;;;;;5070403;28;20040;-77
2022/06/20 09:28:54;;;;;;;6.45;1.30;;;17.90;99.90;;;;;;5073388;28;20079;-76
2022/06/20 09:32:00;;;;;;;11.23;1.48;;;17.70;99.90;;;;;;5010759;28;20068;-74
2022/06/20 09:34:56;;;;;;;6.03;1.40;;;17.80;99.90;;;;;;4995080;28;20472;-77
2022/06/20 09:37:48;;;;;;;6.53;1.52;;;17.80;99.90;;;;;;5011052;28;20050;-76
2022/06/20 09:40:22;;;;;;;7.07;1.58;;;17.70;99.90;;;;;;4994842;28;20057;-77
2022/06/20 09:42:52;;;;;;;10.60;1.90;;;17.50;99.90;;;;;;5011180;28;20069;-76
2022/06/20 09:45:27;;;;;;;8.35;2.53;;;17.30;99.90;;;;;;5011220;28;20053;-78
2022/06/20 09:48:22;;;;;;;7.88;1.48;;;17.30;99.90;;;;;;4994229;28;20061;-78
2022/06/20 09:51:18;;;;;;;7.28;1.20;;;17.20;99.90;;;;;;5010825;28;20050;-75
2022/06/20 09:53:53;;;;;;;7.55;2.10;;;17.80;99.90;;;;;;5010841;28;20513;-77
2022/06/20 09:57:01;;;;;;;6.38;1.40;;;18.20;99.90;;;;;;5010525;28;20129;-77
2022/06/20 09:59:54;;;;;;;4.32;1.17;;;18.50;99.90;;;;;;4993672;28;20053;-75
2022/06/20 10:02:44;;;;;;;3.00;0.90;;;18.90;99.90;;;;;;5010233;28;20524;-77
2022/06/20 10:05:10;;;;;;;6.25;1.10;;;18.90;99.90;;;;;;5010351;28;20045;-75
2022/06/20 10:07:54;;;;;;;4.82;1.20;;;19.30;99.90;;;;;;5026662;28;20610;-78
2022/06/20 10:10:45;;;;;;;7.22;1.27;;;19.60;99.90;;;;;;5054473;28;20044;-77
2022/06/20 10:13:22;;;;;;;4.78;1.40;;;19.60;99.90;;;;;;5072509;28;20059;-77
2022/06/20 10:15:51;;;;;;;6.57;1.25;;;19.80;99.90;;;;;;5054567;28;20451;-78
2022/06/20 10:18:44;;;;;;;4.72;1.40;;;19.80;99.90;;;;;;5054326;28;20427;-76
2022/06/20 10:21:28;;;;;;;9.02;1.67;;;20.00;99.90;;;;;;5072177;28;20159;-77
2022/06/20 10:24:23;;;;;;;5.00;1.17;;;20.40;99.90;;;;;;5072296;28;20051;-77
2022/06/20 10:27:28;;;;;;;7.25;1.20;;;20.20;99.90;;;;;;5054292;28;20048;-76
2022/06/20 10:30:08;;;;;;;8.88;1.50;;;20.30;99.90;;;;;;5072084;28;20063;-78
2022/06/20 10:32:54;;;;;;;10.88;2.65;;;19.70;99.90;;;;;;5071813;28;20400;-75
2022/06/20 10:35:50;;;;;;;5.93;1.20;;;19.70;99.90;;;;;;5071836;28;20048;-77
2022/06/20 10:38:24;;;;;;;4.95;1.20;;;19.90;99.90;;;;;;5053314;28;20507;-77
2022/06/20 10:41:06;;;;;;;3.78;1.40;;;19.50;99.90;;;;;;5053892;28;20044;-77
2022/06/20 10:43:47;;;;;;;6.13;1.30;;;19.20;99.90;;;;;;5054034;28;20501;-75
2022/06/20 10:46:39;;;;;;;8.48;1.42;;;19.30;99.90;;;;;;5053855;28;20051;-77
2022/06/20 10:49:22;;;;;;;7.25;1.38;;;19.60;99.90;;;;;;5071252;28;20507;-75
2022/06/20 10:52:40;;;;;;;7.40;1.38;;;19.90;99.90;;;;;;5053649;28;20554;-77
2022/06/20 10:55:24;;;;;;;9.05;1.52;;;19.60;99.90;;;;;;5009624;28;20056;-77
2022/06/20 10:58:08;;;;;;;7.25;1.33;;;20.00;99.90;;;;;;5009321;28;20054;-78
2022/06/20 11:00:42;;;;;;;8.75;1.83;;;19.60;99.90;;;;;;4993022;28;20053;-75
2022/06/20 11:03:19;;;;;;;7.13;1.40;;;19.80;99.90;;;;;;4992890;28;20513;-79
2022/06/20 11:05:47;;;;;;;4.65;1.20;;;20.20;99.90;;;;;;4992959;28;20600;-77
2022/06/20 11:08:29;;;;;;;6.18;1.38;;;20.20;99.90;;;;;;4993566;28;20572;-76
2022/06/20 11:11:25;;;;;;;8.77;1.48;;;20.60;99.90;;;;;;5009378;28;20902;-77
2022/06/20 11:14:05;;;;;;;4.97;1.48;;;20.60;99.90;;;;;;4993882;28;20066;-77
2022/06/20 11:16:51;;;;;;;6.22;1.30;;;20.20;99.90;;;;;;5008879;28;20056;-75
2022/06/20 11:19:40;;;;;;;5.97;1.38;;;20.10;99.90;;;;;;4992621;28;20057;-78
2022/06/20 11:22:14;;;;;;;10.00;1.70;;;20.70;99.90;;;;;;5009027;28;20057;-78
2022/06/20 11:24:43;;;;;;;;;;;20.60;99.90;;;;;;5009499;28;20050;-75
2022/06/20 11:27:21;;;;;;;5.15;1.90;;;20.60;99.90;;;;;;5051024;28;20015;-75
2022/06/20 11:29:47;;;;;;;6.68;1.58;;;20.60;99.90;;;;;;5050637;28;20503;-78
2022/06/20 11:32:32;;;;;;;8.43;1.83;;;20.30;99.90;;;;;;5049851;28;20037;-76
2022/06/20 11:34:57;;;;;;;;;;;19.90;99.90;;;;;;5051197;28;20047;-76
2022/06/20 11:37:42;;;;;;;7.50;1.73;;;19.90;99.90;;;;;;5050831;28;19925;-77
2022/06/20 11:40:26;;;;;;;6.75;1.52;;;19.80;99.90;;;;;;5050673;28;20053;-77
2022/06/20 11:43:10;;;;;;;8.52;2.40;;;19.60;99.90;;;;;;5050865;28;20102;-76
2022/06/20 11:45:48;;;;;;;7.90;1.50;;;19.40;99.90;;;;;;5050738;28;20053;-75
2022/06/20 11:48:32;;;;;;;6.35;1.45;;;19.70;99.90;;;;;;5050705;28;20052;-75
2022/06/20 11:51:36;;;;;;;5.82;1.45;;;19.90;99.90;;;;;;5049542;28;20049;-76
2022/06/20 11:54:04;;;;;;;6.72;1.67;;;19.70;99.90;;;;;;5008491;28;20058;-76
2022/06/20 11:56:42;;;;;;;7.25;1.92;;;19.20;99.90;;;;;;5008309;28;20116;-76
2022/06/20 11:59:30;;;;;;;5.32;1.55;;;19.00;99.90;;;;;;4991938;28;20124;-78
2022/06/20 12:02:27;;;;;;;7.85;1.90;;;18.80;99.90;;;;;;4986779;28;20157;-76
2022/06/20 12:05:18;;;;;;;4.50;1.40;;;19.40;99.90;;;;;;5008460;28;20050;-76
2022/06/20 12:07:55;;;;;;;5.15;1.48;;;19.80;99.90;;;;;;4991792;28;20046;-76
2022/06/20 12:10:45;;;;;;;9.93;1.73;;;20.20;99.90;;;;;;4991747;28;20085;-76
2022/06/20 12:13:46;;;;;;;5.70;1.63;;;19.90;99.90;;;;;;5008131;28;20267;-77
2022/06/20 12:16:30;;;;;;;6.53;1.38;;;19.50;99.90;;;;;;5008254;28;20042;-76
2022/06/20 12:24:35;;;;;;;3.85;1.20;;;20.10;99.90;;;;;;4991685;28;20065;-77
2022/06/20 12:27:00;;;;;;;5.20;1.35;;;20.10;99.90;;;;;;4991896;28;20045;-82
2022/06/20 12:29:29;;;;;;;3.28;1.10;;;20.50;99.90;;;;;;5008632;28;20464;-76
2022/06/20 12:31:59;;;;;;;4.65;1.52;;;20.40;99.90;;;;;;5048028;28;20504;-78
2022/06/20 12:34:33;;;;;;;4.68;1.20;;;20.60;99.90;;;;;;5050157;28;20167;-79
2022/06/20 12:37:18;;;;;;;10.07;1.75;;;20.60;99.90;;;;;;5049889;28;20053;-77
2022/06/20 12:39:50;;;;;;;7.05;1.30;;;20.40;99.90;;;;;;5050232;28;20037;-79
2022/06/20 12:42:25;;;;;;;9.40;1.38;;;19.90;99.90;;;;;;5050206;28;20044;-77
2022/06/20 12:45:15;;;;;;;7.97;1.35;;;19.40;99.90;;;;;;5050078;28;20059;-76
2022/06/20 12:48:06;;;;;;;4.43;1.00;;;18.90;99.90;;;;;;5048689;28;20149;-77
2022/06/20 12:50:50;;;;;;;8.18;1.40;;;19.00;99.90;;;;;;5049949;28;20094;-77
2022/06/20 12:53:24;;;;;;;5.75;1.13;;;19.30;99.90;;;;;;5048783;28;20060;-76
2022/06/20 12:56:18;;;;;;;6.03;1.40;;;19.60;99.90;;;;;;5050303;28;20076;-76
2022/06/20 12:59:17;;;;;;;10.27;1.80;;;19.90;99.90;;;;;;5069695;28;20446;-77
2022/06/20 13:02:05;;;;;;;4.60;1.13;;;20.10;99.90;;;;;;5053574;28;20295;-76
2022/06/20 13:04:55;;;;;;;3.78;1.30;;;19.50;99.90;;;;;;5073766;28;20466;-76
2022/06/20 13:07:48;;;;;;;3.45;1.13;;;19.80;99.90;;;;;;5055780;28;20518;-77
2022/06/20 13:10:33;;;;;;;5.70;1.65;;;19.80;99.90;;;;;;5073399;28;20052;-77
2022/06/20 13:13:10;;;;;;;9.25;2.00;;;19.70;99.90;;;;;;5073761;28;20051;-76
2022/06/20 13:16:00;;;;;;;5.47;1.60;;;19.70;99.90;;;;;;5055576;28;20056;-76
2022/06/20 13:18:34;;;;;;;4.53;1.33;;;19.60;99.90;;;;;;5073417;28;20102;-75
2022/06/20 13:21:18;;;;;;;3.40;1.30;;;19.40;99.90;;;;;;5073409;28;20044;-78
2022/06/20 13:24:09;;;;;;;7.45;1.42;;;19.40;99.90;;;;;;5073231;28;20076;-78
2022/06/20 13:26:46;;;;;;;6.80;1.20;;;19.20;99.90;;;;;;5073708;28;20127;-76
2022/06/20 13:29:33;;;;;;;6.90;1.20;;;19.40;99.90;;;;;;5073133;28;20044;-76
2022/06/20 13:32:17;;;;;;;6.88;1.48;;;19.10;99.90;;;;;;5073503;28;20045;-75
2022/06/20 13:35:18;;;;;;;10.20;1.73;;;19.50;99.90;;;;;;5073344;28;20435;-77
2022/06/20 13:38:03;;;;;;;8.07;1.88;;;19.70;99.90;;;;;;4994679;28;20518;-76
2022/06/20 13:41:01;;;;;;;5.57;1.65;;;20.00;99.90;;;;;;5010634;28;20074;-75
2022/06/20 13:43:40;;;;;;;4.65;1.60;;;20.40;99.90;;;;;;5010903;28;20822;-76
2022/06/20 13:46:21;;;;;;;7.20;1.92;;;20.00;99.90;;;;;;5010747;28;20054;-78
2022/06/20 13:49:16;;;;;;;6.75;1.70;;;20.30;99.90;;;;;;5010917;28;20104;-76
2022/06/20 13:52:04;;;;;;;4.10;1.50;;;20.00;99.90;;;;;;5003925;28;20625;-78
2022/06/20 13:54:49;;;;;;;9.13;1.77;;;19.80;99.90;;;;;;5010234;28;20493;-76